Date,TemperatureHighF,TemperatureAvgF,TemperatureLowF,DewpointHighF,DewpointAvgF,DewpointLowF,HumidityHigh,HumidityAvg,HumidityLow,PressureMaxIn,PressureMinIn,WindSpeedMaxMPH,WindSpeedAvgMPH,GustSpeedMaxMPH,PrecipitationSumIn
2013-3-1,48,36,33,100,39,28,96,68,46,29.73,29.56,16,-98,22,0.00
2013-3-2,39,23,32,100,56,26,80,42,63,29.74,29.67,16,-382,17,0.00
2013-3-3,41,23,31,100,53,24,86,46,59,29.69,29.60,18,-352,21,0.00
2013-3-4,41,30,28,100,34,21,74,55,52,29.79,29.65,25,-132,28,0.00
2013-3-5,45,32,30,100,38,22,93,62,56,30.10,29.79,16,-125,21,0.00
2013-3-6,42,38,32,36,34,29,94,88,74,30.07,29.91,37,14,41,0.01
2013-3-7,36,34,31,35,32,28,98,93,84,29.96,29.87,34,19,51,0.00
2013-3-8,41,34,30,33,29,24,93,83,52,30.10,29.90,30,16,46,0.00
2013-3-9,46,39,31,31,27,22,91,62,50,30.36,30.10,29,10,36,0.00
2013-3-10,42,37,30,36,32,28,94,85,70,30.43,30.36,11,5,18,0.00
2013-3-11,43,40,37,41,38,34,97,92,88,30.38,30.21,13,5,16,0.00
2013-3-12,47,45,41,47,44,40,99,97,96,30.20,29.79,30,11,32,0.58
2013-3-13,52,44,34,47,33,24,99,68,40,29.84,29.75,20,5,27,0.04
2013-3-14,36,32,27,30,20,11,89,62,40,29.91,29.78,22,7,28,0.00
2013-3-15,40,32,26,30,19,8,74,58,36,29.94,29.73,25,10,36,0.00
2013-3-16,39,34,30,29,22,12,81,61,33,29.92,29.75,16,5,21,0.00
2013-3-17,39,33,28,28,16,7,83,53,27,30.33,29.91,18,5,24,0.00
2013-3-18,34,29,21,30,16,4,96,59,40,30.48,30.22,16,6,24,0.00
2013-3-19,40,36,32,39,35,30,99,97,93,30.21,29.57,27,11,34,1.02
2013-3-20,41,35,29,32,26,20,95,69,44,29.86,29.74,33,10,36,0.00
2013-3-21,39,33,28,32,27,22,96,79,57,29.86,29.63,14,4,17,0.00
2013-3-22,40,34,26,29,20,16,95,59,42,29.83,29.66,16,6,21,0.00
2013-3-23,44,37,30,25,22,18,77,56,35,29.88,29.72,23,8,32,0.00
2013-3-24,47,37,30,34,26,20,86,65,42,29.90,29.75,17,5,19,0.00
2013-3-25,45,38,32,35,31,28,94,79,56,29.80,29.48,25,8,29,0.02
2013-3-26,46,38,33,36,32,24,93,78,52,29.84,29.52,16,5,23,0.00
2013-3-27,51,41,30,35,27,22,79,58,37,29.90,29.79,26,7,32,0.00
2013-3-28,48,41,37,37,34,30,90,75,54,30.07,29.89,15,5,18,0.00
2013-3-29,51,45,39,39,35,30,86,69,53,30.09,30.01,24,8,28,0.00
2013-3-30,53,45,41,38,34,28,81,64,40,30.15,30.04,23,8,31,0.00
2013-3-31,46,41,32,43,37,28,96,86,72,30.17,29.72,25,5,32,0.24